AirNav   TITAN Aviation Fuels
 
 710 users online  

6TX8 Hess Airport
Mansfield, Texas, USA

GOING TO MANSFIELD?


FAA INFORMATION EFFECTIVE 11 AUGUST 2022

Location

FAA Identifier: 6TX8
Lat/Long: 32-33-21.4940N 097-12-23.0430W
32-33.358233N 097-12.384050W
32.5559706,-97.2064008
(estimated)
Elevation: 673 ft. / 205 m (estimated)
Variation: 07E (1985)
From city: 4 miles SW of MANSFIELD, TX
Time zone: UTC -5 (UTC -6 during Standard Time)
Zip code: 76063

Airport Operations

Airport use: CLOSED INDEFINITELY
Activation date: 08/1975
Control tower: no
ARTCC: FORT WORTH CENTER
FSS: FORT WORTH FLIGHT SERVICE STATION
Attendance: UNATNDD
Wind indicator: yes
Segmented circle: no

Airport Communications

WX AWOS-3PT at FWS (5 nm W): 120.025 (817-426-4172)
WX ASOS at GKY (9 nm NE): 127.375 (817-557-0251)
WX AWOS-3P at GPM (12 nm NE): 118.475 (972-606-1433)
WX AWOS-3 at JWY (16 nm E): 119.575 (972-937-4747)
WX AWOS-3 at CPT (17 nm SW): 119.525 (817-641-4135)
WX ASOS at FTW (18 nm NW): PHONE 817-740-3346
WX ASOS at RBD (19 nm NE): PHONE 214-330-5317

Nearby radio navigation aids

VOR radial/distance  VOR name  Freq  Var
FUZr178/20.1RANGER VORTAC115.7006E
TTTr198/20.6MAVERICK VOR/DME113.1006E
CVEr211/25.2COWBOY VOR/DME116.2006E

 
NDB name  Hdg/Dist  Freq  Var  ID
MESQUITE243/37.424803EPQF .--. --.- ..-.

Airport Services

Runway Information

Runway 8/26

Dimensions: 1900 x 100 ft. / 579 x 30 m
Surface: turf
RUNWAY 8  RUNWAY 26
Traffic pattern: leftleft
Obstructions: trees, 100 ft. from runwaynone

Airport Ownership and Management from official FAA records

Ownership: Privately-owned
Owner: RAY HESS
RT 2, BOX 146B
MANSFIELD, TX 76063
Phone 817-473-1470

Airport Operational Statistics

Aircraft based on the field: 2
Single engine airplanes: 2
    

Additional Remarks

(ARPT STATUS) ARPT CLSD INDEFLY.

Instrument Procedures

There are no published instrument procedures at 6TX8.

Some nearby airports with instrument procedures:

KFWS - Fort Worth Spinks Airport (5 nm W)
KGKY - Arlington Municipal Airport (9 nm NE)
KGPM - Grand Prairie Municipal Airport (12 nm NE)
KJWY - Mid-Way Regional Airport (16 nm E)
KCPT - Cleburne Regional Airport (17 nm SW)
KNFW - Fort Worth Naval Air Station JRB (Carswell Field) Airport (17 nm NW)
KFTW - Fort Worth Meacham International Airport (18 nm NW)
KRBD - Dallas Executive Airport (19 nm NE)
50F - Bourland Field Airport (19 nm W)
 
Loc | Ops | Rwys | IFR | FBO | Links
Com | Nav | Svcs | Stats | Notes

City of Fort Worth
 
Area around 6TX8 (Hess Airport)
 
Road maps at: MapQuest Bing Google
 
Aerial photo
No photo
 
Sectional chart

 
Airport distance calculator
Flying to Hess Airport? Find the distance to fly.

From to 6TX8

Sunrise and sunset
Times for 17-Aug-2022
 Local
(UTC-5)
 Zulu
(UTC)
Morning civil twilight06:2911:29
Sunrise06:5511:55
Sunset20:1101:11
Evening civil twilight20:3701:37

Current date and time
Zulu (UTC)  17-Aug-2022 05:25:25
Local (UTC-5)  17-Aug-2022 00:25:25
 
METAR
KFWS 
5nm W 
170455Z AUTO 17004KT 10SM CLR 29/15 A2992 RMK AO2 LTG DSNT SW T02930156
KGKY 
9nm NE 
170453Z AUTO 17005KT 10SM CLR 31/17 A2990 RMK AO2 SLP114 T03110167
KGPM 
12nm NE 
170455Z AUTO 19003KT 10SM CLR 32/15 A2991 RMK AO2 T03180150
KJWY 
16nm E 
170455Z AUTO 00000KT 10SM CLR 28/17 A2993 RMK AO2 T02810170
KCPT 
17nm SW 
170455Z AUTO 15006KT 10SM CLR 30/16 A2993 RMK A01 LTG DSNT W
KNFW 
18nm NW 
170452Z AUTO 16009KT 10SM CLR A2990 RMK AO2 SLP111 TSNO $
KFTW 
19nm NW 
170453Z 19005KT 10SM CLR 30/17 A2990 RMK AO2 SLP112 T03000172
KRBD 
19nm NE 
170453Z AUTO 20006KT 10SM CLR 31/16 A2990 RMK AO2 SLP113 T03060156
TAF
KGKY 
9nm NE 
170248Z 1703/1724 19006KT P6SM BKN250 FM171500 32010KT P6SM SCT100 BKN250 FM172200 35010KT P6SM VCTS BKN100CB
KNFW 
18nm NW 
1623/1723 16008KT 9999 FEW080 BKN250 QNH2982INS FM170100 VRB04KT 9999 BKN250 QNH2984INS FM171200 26008KT 9999 SCT080 BKN250 QNH2991INS FM171800 36010KT 9999 VCTS BKN065CB OVC150 QNH2984INS AUTOMATED SENSOR METWATCH 1704 TIL 1711 T26/1712Z T39/1722Z FN20048
KFTW 
19nm NW 
170248Z 1703/1724 18006KT P6SM BKN250 FM171500 32010KT P6SM SCT100 BKN250 FM172200 35010KT P6SM VCTS BKN100CB
NOTAMs
Click for the latest NOTAMs
NOTAMs are issued by the DoD/FAA and will open in a separate window not controlled by AirNav.

 

 
 

Would you like to see your business listed on this page?

 If your business provides an interesting product or service to pilots, flight crews, aircraft, or users of the Hess Airport, you should consider listing it here.  To start the listing process, click on the button below
 
Add a business
 

Other Pages about Hess Airport

Update a link
 
Copyright © AirNav, LLC. All rights reserved. Privacy Policy  Contact